• Join FlightAware (Why Join?)
  • Login
  • US Flag 
08:05AM EDT


 

Airport Tracker/Info


-or-


 

Live Flight TrackerFlight Track Log ✈ AWE3208 ✈ 17-Jul-2014 ✈ KPHL - KSYR

Flight Track Log - Related Links

Times and Time Zones

All times are in EDT time to prevent confusion due to time zone crossing. See the AWE3208 flight status page for this flight to view local times or setup timezone preferences in your user account.

Time Position Orientation Groundspeed Altitude Reporting Facility
EDT Latitude Longitude Course Direction KTS MPH feet Rate Location/Type
09:16PM 39.8667 -75.2833 311° West 153 176 1,000  Level Philadelphia TRACON
09:17PM 39.8500 -75.3167 237° Southwest 167 192 2,000 2,040 Climbing Philadelphia TRACON
09:18PM 39.8333 -75.4000 255° West 232 267 4,300 2,580 Climbing Philadelphia TRACON
09:19PM 40.0442 -75.3941 323° Northwest  Level FlightAware Approximate
09:19PM 39.8833 -75.4500 323° Northwest 259 298 7,500  Level Philadelphia TRACON
09:20PM 40.1034 -75.4534 323° Northwest  Level FlightAware Approximate
09:20PM 39.9500 -75.4667 349° North 295 339 9,600  Level Philadelphia TRACON
09:21PM 40.1627 -75.5126 323° Northwest  Level FlightAware Approximate
09:21PM 40.0333 -75.5000 343° North 296 341 11,700  Level Philadelphia TRACON
09:22PM 40.2239 -75.5608 311° West  Level FlightAware Approximate
09:22PM 40.1333 -75.5333 346° North 336 387 13,100  Level Philadelphia TRACON
09:23PM 40.2225 -75.5661 344° North 361 415 13,000 420 Descending New York Center
09:24PM 40.2836 -75.6522 313° West 341 392 14,100 1,380 Climbing New York Center
09:25PM 40.3364 -75.7322 311° West 323 372 15,900 900 Climbing New York Center
09:26PM 40.3972 -75.8208 312° West 323 372 15,900  Level New York Center
09:27PM 40.4675 -75.9297 310° West 336 387 15,900  Level New York Center
09:28PM 40.5339 -76.0331 310° West 355 409 16,000  Climbing New York Center
09:29PM 40.6003 -76.1311 312° West 368 423 15,900  Descending New York Center
09:30PM 40.6731 -76.2272 315° West 373 429 16,000 60 Climbing New York Center
09:31PM 40.7661 -76.2400 354° North 359 413 16,100  Climbing New York Center
09:32PM 40.8728 -76.2347 North 365 420 16,100 -60 Level New York Center
09:33PM 40.9794 -76.2242 North 380 437 16,000 -60 Descending New York Center
09:34PM 41.0986 -76.2172 North 388 447 16,000  Level New York Center
09:35PM 41.2050 -76.2119 North 388 447 16,000  Level New York Center
09:36PM 41.3119 -76.2014 North 388 447 16,000  Level New York Center
09:37PM 41.4183 -76.1933 North 388 447 16,000  Level New York Center
09:38PM 41.5144 -76.1872 North 388 447 16,000  Level New York Center
09:39PM 41.6333 -76.1831 North 383 441 16,000 -180 Level New York Center
09:40PM 41.7317 -76.1769 North 376 433 15,700 -420 Descending New York Center
09:41PM 41.8378 -76.1744 North 371 427 15,200 -600 Descending New York Center
09:42PM 41.9319 -76.1683 North 371 427 14,600 -600 Descending New York Center
09:43PM 42.0361 -76.1656 North 371 427 14,000 -660 Descending New York Center
09:44PM 42.1508 -76.1581 North 366 421 13,300 -720 Descending New York Center
09:45PM 42.2531 -76.1525 North 366 421 12,600 -720 Descending New York Center
09:46PM 42.3428 -76.1486 North 366 421 11,900 -840 Descending New York Center
09:47PM 42.3903 -76.1428 North 363 418 11,400 -600 Descending Boston Center
09:48PM 42.4881 -76.1369 North 357 411 11,000 -240 Descending Boston Center
09:49PM 42.5903 -76.1161 North 356 410 11,000 -540 Level Boston Center
09:50PM 42.6789 -76.1006 North 316 364 10,000 -1,260 Descending Boston Center
09:51PM 42.7656 -76.0811 North 287 330 8,700 -1,440 Descending Boston Center
09:52PM 42.8447 -76.0667 North 263 303 7,000 -1,440 Descending Boston Center
09:53PM 42.9061 -76.0544 North 233 268 5,600 -1,080 Descending Boston Center
09:54PM 42.9592 -76.0450 North 224 258 4,800 -1,200 Descending Boston Center
09:55PM 43.0067 -76.0344 North 178 205 3,400 -1,140 Descending Boston Center
09:56PM 43.0558 -76.0208 11° North 184 212 2,700 -900 Descending Boston Center
09:57PM 43.1008 -76.0086 11° North 137 158 1,600 -900 Descending Boston Center
09:58PM 43.1106 -76.0525 287° West 124 143 1,000 -600 Descending Boston Center